sensor_id;sensor_type;location;lat;lon;timestamp;pressure;altitude;pressure_sealevel;temperature;humidity
60479;BME280;46321;48.398;11.754;2023-02-13T00:00:54;98547.03;;;0.22;93.54
60479;BME280;46321;48.398;11.754;2023-02-13T00:03:19;98544.22;;;0.05;94.07
60479;BME280;46321;48.398;11.754;2023-02-13T00:05:44;98531.56;;;0.19;94.15
60479;BME280;46321;48.398;11.754;2023-02-13T00:08:09;98536.63;;;0.22;93.86
60479;BME280;46321;48.398;11.754;2023-02-13T00:10:35;98524.34;;;0.26;93.83
60479;BME280;46321;48.398;11.754;2023-02-13T00:13:01;98529.47;;;0.28;93.73
60479;BME280;46321;48.398;11.754;2023-02-13T00:15:26;98524.41;;;0.25;93.87
60479;BME280;46321;48.398;11.754;2023-02-13T00:17:51;98523.38;;;0.06;94.20
60479;BME280;46321;48.398;11.754;2023-02-13T00:20:16;98514.56;;;-0.14;95.52
60479;BME280;46321;48.398;11.754;2023-02-13T00:22:42;98516.56;;;0.02;95.02
60479;BME280;46321;48.398;11.754;2023-02-13T00:25:07;98514.78;;;0.03;94.62
60479;BME280;46321;48.398;11.754;2023-02-13T00:27:33;98513.56;;;0.13;94.32
60479;BME280;46321;48.398;11.754;2023-02-13T00:29:58;98520.63;;;0.09;94.38
60479;BME280;46321;48.398;11.754;2023-02-13T00:32:23;98516.78;;;-0.04;94.45
60479;BME280;46321;48.398;11.754;2023-02-13T00:34:49;98521.19;;;-0.06;94.92
60479;BME280;46321;48.398;11.754;2023-02-13T00:37:14;98523.00;;;-0.08;95.14
60479;BME280;46321;48.398;11.754;2023-02-13T00:39:40;98516.28;;;-0.14;95.37
60479;BME280;46321;48.398;11.754;2023-02-13T00:42:05;98512.13;;;-0.18;96.13
60479;BME280;46321;48.398;11.754;2023-02-13T00:44:31;98511.81;;;-0.10;94.82
60479;BME280;46321;48.398;11.754;2023-02-13T00:46:56;98505.53;;;-0.05;95.46
60479;BME280;46321;48.398;11.754;2023-02-13T00:49:22;98511.88;;;-0.12;95.47
60479;BME280;46321;48.398;11.754;2023-02-13T00:51:47;98498.72;;;-0.09;95.66
60479;BME280;46321;48.398;11.754;2023-02-13T00:54:12;98506.78;;;-0.15;95.61
60479;BME280;46321;48.398;11.754;2023-02-13T00:56:37;98501.13;;;-0.03;95.57
60479;BME280;46321;48.398;11.754;2023-02-13T00:59:03;98498.38;;;0.01;95.20
60479;BME280;46321;48.398;11.754;2023-02-13T01:01:28;98505.00;;;0.09;95.00
60479;BME280;46321;48.398;11.754;2023-02-13T01:03:53;98512.97;;;0.05;95.20
60479;BME280;46321;48.398;11.754;2023-02-13T01:06:18;98510.56;;;0.00;95.25
60479;BME280;46321;48.398;11.754;2023-02-13T01:08:44;98508.06;;;-0.03;95.69
60479;BME280;46321;48.398;11.754;2023-02-13T01:11:09;98507.59;;;0.09;95.20
60479;BME280;46321;48.398;11.754;2023-02-13T01:13:35;98503.25;;;0.10;94.86
60479;BME280;46321;48.398;11.754;2023-02-13T01:16:00;98507.22;;;-0.04;95.53
60479;BME280;46321;48.398;11.754;2023-02-13T01:18:25;98512.03;;;0.07;95.19
60479;BME280;46321;48.398;11.754;2023-02-13T01:20:57;98501.66;;;0.06;94.72
60479;BME280;46321;48.398;11.754;2023-02-13T01:23:22;98501.00;;;0.01;94.73
60479;BME280;46321;48.398;11.754;2023-02-13T01:25:48;98499.78;;;0.09;94.46
60479;BME280;46321;48.398;11.754;2023-02-13T01:28:16;98493.78;;;0.07;94.18
60479;BME280;46321;48.398;11.754;2023-02-13T01:30:41;98502.22;;;0.14;94.14
60479;BME280;46321;48.398;11.754;2023-02-13T01:33:06;98501.19;;;0.18;93.90
60479;BME280;46321;48.398;11.754;2023-02-13T01:35:31;98506.22;;;0.23;93.78
60479;BME280;46321;48.398;11.754;2023-02-13T01:37:57;98505.25;;;0.26;93.52
60479;BME280;46321;48.398;11.754;2023-02-13T01:40:22;98496.94;;;0.16;93.84
60479;BME280;46321;48.398;11.754;2023-02-13T01:42:47;98495.31;;;0.13;93.38
60479;BME280;46321;48.398;11.754;2023-02-13T01:45:21;98506.03;;;0.05;93.81
60479;BME280;46321;48.398;11.754;2023-02-13T01:48:33;98499.69;;;0.13;93.19
60479;BME280;46321;48.398;11.754;2023-02-13T01:50:47;98502.63;;;0.03;93.47
60479;BME280;46321;48.398;11.754;2023-02-13T01:53:26;98499.06;;;0.06;92.88
60479;BME280;46321;48.398;11.754;2023-02-13T01:55:58;98495.53;;;-0.16;94.06
60479;BME280;46321;48.398;11.754;2023-02-13T01:58:28;98500.44;;;-0.08;93.28
60479;BME280;46321;48.398;11.754;2023-02-13T02:00:54;98498.56;;;-0.04;93.18
60479;BME280;46321;48.398;11.754;2023-02-13T02:03:30;98499.53;;;-0.07;93.71
60479;BME280;46321;48.398;11.754;2023-02-13T02:05:58;98503.81;;;-0.06;93.71
60479;BME280;46321;48.398;11.754;2023-02-13T02:08:24;98503.72;;;-0.03;93.45
60479;BME280;46321;48.398;11.754;2023-02-13T02:10:50;98503.72;;;-0.03;93.48
60479;BME280;46321;48.398;11.754;2023-02-13T02:13:18;98507.09;;;-0.25;93.85
60479;BME280;46321;48.398;11.754;2023-02-13T02:15:45;98505.13;;;-0.18;93.98
60479;BME280;46321;48.398;11.754;2023-02-13T02:18:20;98507.69;;;-0.16;93.35
60479;BME280;46321;48.398;11.754;2023-02-13T02:26:53;98503.94;;;-0.33;94.18
60479;BME280;46321;48.398;11.754;2023-02-13T02:29:41;98510.75;;;-0.29;94.01
60479;BME280;46321;48.398;11.754;2023-02-13T02:35:18;98499.75;;;-0.13;93.66
60479;BME280;46321;48.398;11.754;2023-02-13T02:38:13;98500.00;;;-0.19;93.73
60479;BME280;46321;48.398;11.754;2023-02-13T02:41:06;98500.50;;;-0.09;93.36
60479;BME280;46321;48.398;11.754;2023-02-13T02:46:17;98497.66;;;-0.03;93.31
60479;BME280;46321;48.398;11.754;2023-02-13T02:51:54;98503.28;;;-0.14;93.29
60479;BME280;46321;48.398;11.754;2023-02-13T02:54:33;98496.50;;;-0.18;93.13
60479;BME280;46321;48.398;11.754;2023-02-13T02:57:23;98493.88;;;-0.18;92.89
60479;BME280;46321;48.398;11.754;2023-02-13T03:00:12;98494.50;;;-0.12;92.49
60479;BME280;46321;48.398;11.754;2023-02-13T03:02:57;98498.06;;;-0.14;92.45
60479;BME280;46321;48.398;11.754;2023-02-13T03:05:43;98496.44;;;-0.17;92.50
60479;BME280;46321;48.398;11.754;2023-02-13T03:08:28;98496.59;;;-0.21;92.74
60479;BME280;46321;48.398;11.754;2023-02-13T03:11:12;98488.16;;;-0.28;93.10
60479;BME280;46321;48.398;11.754;2023-02-13T03:13:57;98490.44;;;-0.19;93.09
60479;BME280;46321;48.398;11.754;2023-02-13T03:16:25;98491.06;;;-0.12;92.79
60479;BME280;46321;48.398;11.754;2023-02-13T03:19:16;98491.16;;;-0.15;92.54
60479;BME280;46321;48.398;11.754;2023-02-13T03:22:12;98486.25;;;-0.23;92.77
60479;BME280;46321;48.398;11.754;2023-02-13T03:25:06;98497.16;;;-0.13;92.48
60479;BME280;46321;48.398;11.754;2023-02-13T03:30:38;98494.78;;;-0.19;92.60
60479;BME280;46321;48.398;11.754;2023-02-13T03:33:37;98503.94;;;-0.33;93.41
60479;BME280;46321;48.398;11.754;2023-02-13T03:39:11;98507.06;;;-0.23;93.27
60479;BME280;46321;48.398;11.754;2023-02-13T03:41:47;98502.94;;;-0.29;93.17
60479;BME280;46321;48.398;11.754;2023-02-13T03:46:50;98508.59;;;-0.41;93.66
60479;BME280;46321;48.398;11.754;2023-02-13T03:49:21;98504.09;;;-0.36;93.29
60479;BME280;46321;48.398;11.754;2023-02-13T03:52:15;98507.44;;;-0.58;93.72
60479;BME280;46321;48.398;11.754;2023-02-13T03:54:46;98501.19;;;-0.52;93.41
60479;BME280;46321;48.398;11.754;2023-02-13T03:57:32;98493.75;;;-0.63;93.87
60479;BME280;46321;48.398;11.754;2023-02-13T04:00:20;98495.81;;;-0.48;93.96
60479;BME280;46321;48.398;11.754;2023-02-13T04:02:51;98492.28;;;-0.47;93.16
60479;BME280;46321;48.398;11.754;2023-02-13T04:05:25;98490.47;;;-0.44;93.31
60479;BME280;46321;48.398;11.754;2023-02-13T04:07:53;98495.59;;;-0.41;93.33
60479;BME280;46321;48.398;11.754;2023-02-13T04:10:18;98499.06;;;-0.42;93.27
60479;BME280;46321;48.398;11.754;2023-02-13T04:13:09;98490.72;;;-0.51;93.38
60479;BME280;46321;48.398;11.754;2023-02-13T04:15:42;98501.66;;;-0.66;94.31
60479;BME280;46321;48.398;11.754;2023-02-13T04:18:20;98502.59;;;-0.67;94.50
60479;BME280;46321;48.398;11.754;2023-02-13T04:20:46;98495.34;;;-0.59;94.45
60479;BME280;46321;48.398;11.754;2023-02-13T04:23:12;98510.31;;;-0.66;94.34
60479;BME280;46321;48.398;11.754;2023-02-13T04:25:39;98499.69;;;-0.60;94.25
60479;BME280;46321;48.398;11.754;2023-02-13T04:28:05;98506.31;;;-0.51;93.94
60479;BME280;46321;48.398;11.754;2023-02-13T04:30:31;98515.47;;;-0.64;94.24
60479;BME280;46321;48.398;11.754;2023-02-13T04:32:56;98505.91;;;-0.64;94.46
60479;BME280;46321;48.398;11.754;2023-02-13T04:35:21;98506.56;;;-0.57;94.09
60479;BME280;46321;48.398;11.754;2023-02-13T04:37:46;98512.44;;;-0.52;94.05
60479;BME280;46321;48.398;11.754;2023-02-13T04:40:12;98498.50;;;-0.51;94.22
60479;BME280;46321;48.398;11.754;2023-02-13T04:42:37;98501.03;;;-0.48;94.09
60479;BME280;46321;48.398;11.754;2023-02-13T04:45:02;98507.94;;;-0.72;94.28
60479;BME280;46321;48.398;11.754;2023-02-13T04:47:28;98510.59;;;-0.74;94.61
60479;BME280;46321;48.398;11.754;2023-02-13T04:49:53;98507.34;;;-0.81;94.49
60479;BME280;46321;48.398;11.754;2023-02-13T04:52:18;98510.81;;;-0.80;94.52
60479;BME280;46321;48.398;11.754;2023-02-13T04:54:44;98518.81;;;-0.86;94.29
60479;BME280;46321;48.398;11.754;2023-02-13T04:57:09;98509.91;;;-0.79;94.20
60479;BME280;46321;48.398;11.754;2023-02-13T04:59:34;98507.00;;;-0.70;94.18
60479;BME280;46321;48.398;11.754;2023-02-13T05:02:00;98515.59;;;-0.67;94.04
60479;BME280;46321;48.398;11.754;2023-02-13T05:04:25;98518.06;;;-0.64;93.90
60479;BME280;46321;48.398;11.754;2023-02-13T05:06:51;98520.56;;;-0.61;93.82
60479;BME280;46321;48.398;11.754;2023-02-13T05:09:16;98514.56;;;-0.63;93.66
60479;BME280;46321;48.398;11.754;2023-02-13T05:11:41;98526.66;;;-0.62;93.12
60479;BME280;46321;48.398;11.754;2023-02-13T05:14:07;98520.84;;;-0.69;93.65
60479;BME280;46321;48.398;11.754;2023-02-13T05:16:33;98527.63;;;-0.65;93.68
60479;BME280;46321;48.398;11.754;2023-02-13T05:18:58;98530.06;;;-0.60;93.44
60479;BME280;46321;48.398;11.754;2023-02-13T05:21:23;98521.53;;;-0.64;93.49
60479;BME280;46321;48.398;11.754;2023-02-13T05:24:07;98525.78;;;-0.61;93.28
60479;BME280;46321;48.398;11.754;2023-02-13T05:26:32;98526.56;;;-0.59;92.94
60479;BME280;46321;48.398;11.754;2023-02-13T05:28:58;98530.22;;;-0.65;93.45
60479;BME280;46321;48.398;11.754;2023-02-13T05:31:42;98530.84;;;-0.58;93.06
60479;BME280;46321;48.398;11.754;2023-02-13T05:34:07;98524.59;;;-0.52;92.72
60479;BME280;46321;48.398;11.754;2023-02-13T05:36:32;98521.94;;;-0.51;92.78
60479;BME280;46321;48.398;11.754;2023-02-13T05:38:58;98524.66;;;-0.54;92.70
60479;BME280;46321;48.398;11.754;2023-02-13T05:41:23;98524.59;;;-0.52;92.93
60479;BME280;46321;48.398;11.754;2023-02-13T05:43:48;98519.34;;;-0.51;92.56
60479;BME280;46321;48.398;11.754;2023-02-13T05:46:14;98517.53;;;-0.49;92.76
60479;BME280;46321;48.398;11.754;2023-02-13T05:48:39;98511.06;;;-0.62;92.59
60479;BME280;46321;48.398;11.754;2023-02-13T05:51:04;98513.38;;;-0.78;93.66
60479;BME280;46321;48.398;11.754;2023-02-13T05:53:30;98512.84;;;-0.63;93.31
60479;BME280;46321;48.398;11.754;2023-02-13T05:55:55;98512.63;;;-0.58;93.27
60479;BME280;46321;48.398;11.754;2023-02-13T05:58:20;98520.25;;;-0.52;93.23
60479;BME280;46321;48.398;11.754;2023-02-13T06:00:46;98529.50;;;-0.44;92.93
60479;BME280;46321;48.398;11.754;2023-02-13T06:03:12;98532.13;;;-0.44;93.15
60479;BME280;46321;48.398;11.754;2023-02-13T06:05:37;98531.16;;;-0.42;93.01
60479;BME280;46321;48.398;11.754;2023-02-13T06:08:03;98524.03;;;-0.37;92.99
60479;BME280;46321;48.398;11.754;2023-02-13T06:10:28;98533.38;;;-0.31;92.79
60479;BME280;46321;48.398;11.754;2023-02-13T06:12:53;98543.16;;;-0.38;93.06
60479;BME280;46321;48.398;11.754;2023-02-13T06:15:19;98540.53;;;-0.36;92.92
60479;BME280;46321;48.398;11.754;2023-02-13T06:17:44;98548.44;;;-0.39;92.48
60479;BME280;46321;48.398;11.754;2023-02-13T06:20:09;98543.66;;;-0.52;92.10
60479;BME280;46321;48.398;11.754;2023-02-13T06:22:35;98546.91;;;-0.45;92.34
60479;BME280;46321;48.398;11.754;2023-02-13T06:25:00;98560.59;;;-0.40;91.90
60479;BME280;46321;48.398;11.754;2023-02-13T06:27:25;98549.81;;;-0.54;91.57
60479;BME280;46321;48.398;11.754;2023-02-13T06:29:50;98555.06;;;-0.56;91.74
60479;BME280;46321;48.398;11.754;2023-02-13T06:32:16;98552.38;;;-0.53;91.51
60479;BME280;46321;48.398;11.754;2023-02-13T06:34:41;98558.19;;;-0.46;91.05
60479;BME280;46321;48.398;11.754;2023-02-13T06:37:07;98564.44;;;-0.50;90.72
60479;BME280;46321;48.398;11.754;2023-02-13T06:39:32;98561.03;;;-0.52;91.37
60479;BME280;46321;48.398;11.754;2023-02-13T06:41:57;98564.25;;;-0.45;90.99
60479;BME280;46321;48.398;11.754;2023-02-13T06:44:22;98561.53;;;-0.42;90.93
60479;BME280;46321;48.398;11.754;2023-02-13T06:46:48;98562.63;;;-0.48;91.37
60479;BME280;46321;48.398;11.754;2023-02-13T06:49:13;98561.88;;;-0.52;91.67
60479;BME280;46321;48.398;11.754;2023-02-13T06:51:38;98562.38;;;-0.42;91.43
60479;BME280;46321;48.398;11.754;2023-02-13T06:54:03;98561.38;;;-0.38;91.14
60479;BME280;46321;48.398;11.754;2023-02-13T06:56:29;98565.56;;;-0.33;90.85
60479;BME280;46321;48.398;11.754;2023-02-13T06:58:54;98568.94;;;-0.30;90.82
60479;BME280;46321;48.398;11.754;2023-02-13T07:01:19;98574.19;;;-0.31;90.76
60479;BME280;46321;48.398;11.754;2023-02-13T07:03:44;98574.84;;;-0.26;90.86
60479;BME280;46321;48.398;11.754;2023-02-13T07:06:16;98581.81;;;-0.27;90.55
60479;BME280;46321;48.398;11.754;2023-02-13T07:08:41;98583.44;;;-0.22;90.62
60479;BME280;46321;48.398;11.754;2023-02-13T07:11:06;98590.41;;;-0.25;90.59
60479;BME280;46321;48.398;11.754;2023-02-13T07:13:32;98597.28;;;-0.22;90.67
60479;BME280;46321;48.398;11.754;2023-02-13T07:16:00;98602.53;;;-0.24;90.78
60479;BME280;46321;48.398;11.754;2023-02-13T07:18:25;98606.63;;;-0.16;90.74
60479;BME280;46321;48.398;11.754;2023-02-13T07:20:50;98601.47;;;-0.18;90.43
60479;BME280;46321;48.398;11.754;2023-02-13T07:23:16;98611.72;;;-0.13;90.26
60479;BME280;46321;48.398;11.754;2023-02-13T07:25:41;98609.06;;;-0.12;89.71
60479;BME280;46321;48.398;11.754;2023-02-13T07:28:06;98608.22;;;-0.12;89.94
60479;BME280;46321;48.398;11.754;2023-02-13T07:30:33;98613.28;;;-0.09;89.74
60479;BME280;46321;48.398;11.754;2023-02-13T07:33:00;98614.78;;;-0.02;89.60
60479;BME280;46321;48.398;11.754;2023-02-13T07:35:25;98613.81;;;0.01;89.51
60479;BME280;46321;48.398;11.754;2023-02-13T07:37:52;98616.25;;;0.06;89.40
60479;BME280;46321;48.398;11.754;2023-02-13T07:40:18;98623.97;;;0.09;89.59
60479;BME280;46321;48.398;11.754;2023-02-13T07:42:44;98614.50;;;0.06;89.69
60479;BME280;46321;48.398;11.754;2023-02-13T07:45:09;98617.38;;;-0.02;89.79
60479;BME280;46321;48.398;11.754;2023-02-13T07:47:36;98612.31;;;-0.05;89.81
60479;BME280;46321;48.398;11.754;2023-02-13T07:50:02;98613.28;;;-0.09;90.00
60479;BME280;46321;48.398;11.754;2023-02-13T07:52:30;98615.41;;;0.05;89.62
60479;BME280;46321;48.398;11.754;2023-02-13T07:54:55;98622.19;;;0.09;89.55
60479;BME280;46321;48.398;11.754;2023-02-13T07:57:20;98616.09;;;0.10;89.17
60479;BME280;46321;48.398;11.754;2023-02-13T07:59:45;98615.19;;;0.11;88.91
60479;BME280;46321;48.398;11.754;2023-02-13T08:02:12;98619.56;;;0.11;88.59
60479;BME280;46321;48.398;11.754;2023-02-13T08:04:38;98620.44;;;0.10;88.63
60479;BME280;46321;48.398;11.754;2023-02-13T08:07:03;98615.56;;;0.01;88.90
60479;BME280;46321;48.398;11.754;2023-02-13T08:09:28;98619.50;;;0.13;88.97
60479;BME280;46321;48.398;11.754;2023-02-13T08:12:12;98610.75;;;0.14;88.94
60479;BME280;46321;48.398;11.754;2023-02-13T08:14:37;98624.63;;;0.14;88.79
60479;BME280;46321;48.398;11.754;2023-02-13T08:17:03;98622.66;;;0.21;88.77
60479;BME280;46321;48.398;11.754;2023-02-13T08:19:28;98619.81;;;0.27;88.40
60479;BME280;46321;48.398;11.754;2023-02-13T08:21:54;98621.88;;;0.19;88.57
60479;BME280;46321;48.398;11.754;2023-02-13T08:24:19;98624.13;;;0.28;88.75
60479;BME280;46321;48.398;11.754;2023-02-13T08:26:44;98617.72;;;0.37;88.55
60479;BME280;46321;48.398;11.754;2023-02-13T08:29:10;98622.84;;;0.40;88.17
60479;BME280;46321;48.398;11.754;2023-02-13T08:31:35;98621.97;;;0.40;87.97
60479;BME280;46321;48.398;11.754;2023-02-13T08:34:00;98629.09;;;0.34;87.52
60479;BME280;46321;48.398;11.754;2023-02-13T08:36:26;98621.81;;;0.20;86.71
60479;BME280;46321;48.398;11.754;2023-02-13T08:38:52;98629.78;;;0.16;87.26
60479;BME280;46321;48.398;11.754;2023-02-13T08:41:17;98625.09;;;0.26;86.78
60479;BME280;46321;48.398;11.754;2023-02-13T08:43:43;98623.50;;;0.21;86.67
60479;BME280;46321;48.398;11.754;2023-02-13T08:46:08;98615.69;;;0.21;86.44
60479;BME280;46321;48.398;11.754;2023-02-13T08:48:34;98627.94;;;0.19;86.53
60479;BME280;46321;48.398;11.754;2023-02-13T08:50:59;98630.31;;;0.26;87.19
60479;BME280;46321;48.398;11.754;2023-02-13T08:53:24;98628.97;;;0.15;87.06
60479;BME280;46321;48.398;11.754;2023-02-13T08:55:54;98627.63;;;0.27;86.87
60479;BME280;46321;48.398;11.754;2023-02-13T08:58:20;98628.31;;;0.32;86.62
60479;BME280;46321;48.398;11.754;2023-02-13T09:00:45;98628.22;;;0.36;86.62
60479;BME280;46321;48.398;11.754;2023-02-13T09:03:10;98634.09;;;0.41;86.63
60479;BME280;46321;48.398;11.754;2023-02-13T09:05:36;98638.97;;;0.50;86.50
60479;BME280;46321;48.398;11.754;2023-02-13T09:08:01;98634.59;;;0.51;86.56
60479;BME280;46321;48.398;11.754;2023-02-13T09:10:28;98643.13;;;0.54;86.83
60479;BME280;46321;48.398;11.754;2023-02-13T09:12:54;98636.28;;;0.52;87.06
60479;BME280;46321;48.398;11.754;2023-02-13T09:15:20;98641.41;;;0.31;86.80
60479;BME280;46321;48.398;11.754;2023-02-13T09:17:45;98643.91;;;0.10;86.38
60479;BME280;46321;48.398;11.754;2023-02-13T09:20:12;98646.00;;;0.24;86.73
60479;BME280;46321;48.398;11.754;2023-02-13T09:22:38;98650.25;;;0.27;87.11
60479;BME280;46321;48.398;11.754;2023-02-13T09:25:04;98649.63;;;0.20;87.39
60479;BME280;46321;48.398;11.754;2023-02-13T09:27:29;98640.38;;;0.35;87.01
60479;BME280;46321;48.398;11.754;2023-02-13T09:29:55;98645.47;;;0.38;86.41
60479;BME280;46321;48.398;11.754;2023-02-13T09:32:20;98648.28;;;0.33;85.94
60479;BME280;46321;48.398;11.754;2023-02-13T09:34:45;98645.84;;;0.29;86.15
60479;BME280;46321;48.398;11.754;2023-02-13T09:37:11;98642.69;;;0.43;85.83
60479;BME280;46321;48.398;11.754;2023-02-13T09:39:36;98650.06;;;0.31;87.23
60479;BME280;46321;48.398;11.754;2023-02-13T09:42:03;98653.28;;;0.38;86.76
60479;BME280;46321;48.398;11.754;2023-02-13T09:44:39;98646.94;;;0.45;86.41
60479;BME280;46321;48.398;11.754;2023-02-13T09:47:18;98654.13;;;0.63;86.34
60479;BME280;46321;48.398;11.754;2023-02-13T09:50:22;98651.81;;;0.55;85.84
60479;BME280;46321;48.398;11.754;2023-02-13T09:52:50;98643.94;;;0.56;85.62
60479;BME280;46321;48.398;11.754;2023-02-13T09:55:21;98652.53;;;0.59;85.71
60479;BME280;46321;48.398;11.754;2023-02-13T10:00:54;98653.47;;;0.80;85.61
60479;BME280;46321;48.398;11.754;2023-02-13T10:03:29;98657.72;;;0.60;85.41
60479;BME280;46321;48.398;11.754;2023-02-13T10:06:17;98660.75;;;0.72;85.76
60479;BME280;46321;48.398;11.754;2023-02-13T10:08:48;98666.63;;;0.77;85.47
60479;BME280;46321;48.398;11.754;2023-02-13T10:11:44;98659.59;;;0.79;84.98
60479;BME280;46321;48.398;11.754;2023-02-13T10:16:53;98652.06;;;0.49;85.89
60479;BME280;46321;48.398;11.754;2023-02-13T10:21:57;98644.69;;;0.60;86.21
60479;BME280;46321;48.398;11.754;2023-02-13T10:24:34;98657.22;;;0.73;85.74
60479;BME280;46321;48.398;11.754;2023-02-13T10:27:12;98651.13;;;0.74;85.64
60479;BME280;46321;48.398;11.754;2023-02-13T10:29:47;98647.13;;;0.87;85.21
60479;BME280;46321;48.398;11.754;2023-02-13T10:35:03;98642.81;;;0.86;85.35
60479;BME280;46321;48.398;11.754;2023-02-13T10:37:40;98629.41;;;0.96;85.50
60479;BME280;46321;48.398;11.754;2023-02-13T10:40:09;98634.47;;;0.99;85.53
60479;BME280;46321;48.398;11.754;2023-02-13T10:42:45;98640.63;;;0.98;84.36
60479;BME280;46321;48.398;11.754;2023-02-13T10:45:32;98635.16;;;1.04;84.14
60479;BME280;46321;48.398;11.754;2023-02-13T10:48:05;98630.88;;;1.03;85.07
60479;BME280;46321;48.398;11.754;2023-02-13T10:50:41;98625.22;;;1.14;84.58
60479;BME280;46321;48.398;11.754;2023-02-13T10:53:12;98628.78;;;1.11;85.44
60479;BME280;46321;48.398;11.754;2023-02-13T10:56:06;98623.03;;;1.03;84.61
60479;BME280;46321;48.398;11.754;2023-02-13T11:01:30;98618.19;;;0.94;86.05
60479;BME280;46321;48.398;11.754;2023-02-13T11:04:23;98615.44;;;0.97;85.74
60479;BME280;46321;48.398;11.754;2023-02-13T11:06:57;98606.34;;;1.07;85.50
60479;BME280;46321;48.398;11.754;2023-02-13T11:09:24;98608.50;;;1.18;85.12
60479;BME280;46321;48.398;11.754;2023-02-13T11:11:50;98601.53;;;1.19;85.27
60479;BME280;46321;48.398;11.754;2023-02-13T11:14:21;98603.91;;;1.25;85.62
60479;BME280;46321;48.398;11.754;2023-02-13T11:16:56;98607.09;;;1.32;85.37
60479;BME280;46321;48.398;11.754;2023-02-13T11:19:38;98597.94;;;1.21;85.07
60479;BME280;46321;48.398;11.754;2023-02-13T11:22:10;98598.34;;;1.33;84.86
60479;BME280;46321;48.398;11.754;2023-02-13T11:24:39;98600.94;;;1.33;85.14
60479;BME280;46321;48.398;11.754;2023-02-13T11:27:08;98595.09;;;1.48;85.14
60479;BME280;46321;48.398;11.754;2023-02-13T11:29:52;98596.63;;;1.53;85.05
60479;BME280;46321;48.398;11.754;2023-02-13T11:32:21;98609.38;;;1.60;84.29
60479;BME280;46321;48.398;11.754;2023-02-13T11:34:48;98604.66;;;1.69;84.10
60479;BME280;46321;48.398;11.754;2023-02-13T11:37:17;98607.78;;;1.77;84.03
60479;BME280;46321;48.398;11.754;2023-02-13T11:39:45;98612.88;;;1.80;84.15
60479;BME280;46321;48.398;11.754;2023-02-13T11:42:14;98607.66;;;1.80;83.78
60479;BME280;46321;48.398;11.754;2023-02-13T11:44:40;98612.22;;;1.75;83.57
60479;BME280;46321;48.398;11.754;2023-02-13T11:47:06;98610.16;;;1.63;84.48
60479;BME280;46321;48.398;11.754;2023-02-13T11:49:35;98604.16;;;1.60;84.13
60479;BME280;46321;48.398;11.754;2023-02-13T11:52:05;98610.28;;;1.59;83.72
60479;BME280;46321;48.398;11.754;2023-02-13T11:54:39;98611.06;;;1.62;83.82
60479;BME280;46321;48.398;11.754;2023-02-13T11:57:24;98611.84;;;1.64;84.30
60479;BME280;46321;48.398;11.754;2023-02-13T11:59:52;98606.97;;;1.77;84.47
60479;BME280;46321;48.398;11.754;2023-02-13T12:02:29;98592.09;;;1.98;83.41
60479;BME280;46321;48.398;11.754;2023-02-13T12:05:54;98599.69;;;1.83;83.79
60479;BME280;46321;48.398;11.754;2023-02-13T12:08:07;98601.88;;;1.93;83.98
60479;BME280;46321;48.398;11.754;2023-02-13T12:10:35;98598.25;;;1.97;83.21
60479;BME280;46321;48.398;11.754;2023-02-13T12:13:26;98606.72;;;2.02;83.40
60479;BME280;46321;48.398;11.754;2023-02-13T12:16:00;98604.88;;;2.04;83.66
60479;BME280;46321;48.398;11.754;2023-02-13T12:18:33;98598.44;;;1.92;83.56
60479;BME280;46321;48.398;11.754;2023-02-13T12:24:00;98596.84;;;2.28;82.88
60479;BME280;46321;48.398;11.754;2023-02-13T12:30:14;98581.44;;;2.22;82.36
60479;BME280;46321;48.398;11.754;2023-02-13T12:41:14;98576.72;;;2.31;82.66
60479;BME280;46321;48.398;11.754;2023-02-13T12:43:49;98575.22;;;2.44;82.20
60479;BME280;46321;48.398;11.754;2023-02-13T12:51:47;98564.13;;;2.39;82.45
60479;BME280;46321;48.398;11.754;2023-02-13T12:54:34;98555.69;;;2.51;81.66
60479;BME280;46321;48.398;11.754;2023-02-13T13:06:06;98546.81;;;2.73;82.18
60479;BME280;46321;48.398;11.754;2023-02-13T13:11:44;98553.41;;;2.63;81.70
60479;BME280;46321;48.398;11.754;2023-02-13T13:23:18;98552.66;;;2.61;81.43
60479;BME280;46321;48.398;11.754;2023-02-13T13:25:50;98545.06;;;2.74;81.43
60479;BME280;46321;48.398;11.754;2023-02-13T13:28:23;98549.72;;;2.67;81.36
60479;BME280;46321;48.398;11.754;2023-02-13T13:30:51;98546.31;;;2.84;81.11
60479;BME280;46321;48.398;11.754;2023-02-13T13:33:23;98552.34;;;3.04;80.83
60479;BME280;46321;48.398;11.754;2023-02-13T13:38:38;98537.94;;;2.95;80.99
60479;BME280;46321;48.398;11.754;2023-02-13T13:41:14;98547.56;;;3.13;80.55
60479;BME280;46321;48.398;11.754;2023-02-13T13:51:38;98534.81;;;3.23;80.20
60479;BME280;46321;48.398;11.754;2023-02-13T14:07:37;98529.09;;;3.50;79.69
60479;BME280;46321;48.398;11.754;2023-02-13T14:10:04;98528.00;;;3.54;79.72
60479;BME280;46321;48.398;11.754;2023-02-13T14:14:56;98529.88;;;3.52;78.94
60479;BME280;46321;48.398;11.754;2023-02-13T14:23:30;98519.34;;;3.70;79.04
60479;BME280;46321;48.398;11.754;2023-02-13T14:26:19;98517.84;;;3.82;78.56
60479;BME280;46321;48.398;11.754;2023-02-13T14:31:40;98515.00;;;3.86;78.63
60479;BME280;46321;48.398;11.754;2023-02-13T14:36:45;98520.19;;;3.70;79.14
60479;BME280;46321;48.398;11.754;2023-02-13T14:39:24;98523.06;;;3.65;78.37
60479;BME280;46321;48.398;11.754;2023-02-13T14:44:21;98519.56;;;3.49;78.71
60479;BME280;46321;48.398;11.754;2023-02-13T14:46:50;98513.25;;;3.53;78.34
60479;BME280;46321;48.398;11.754;2023-02-13T14:49:20;98519.19;;;3.39;78.45
60479;BME280;46321;48.398;11.754;2023-02-13T14:51:53;98519.75;;;3.28;79.38
60479;BME280;46321;48.398;11.754;2023-02-13T14:54:26;98516.13;;;3.30;80.01
60479;BME280;46321;48.398;11.754;2023-02-13T14:56:59;98519.44;;;3.16;80.17
60479;BME280;46321;48.398;11.754;2023-02-13T14:59:32;98516.59;;;3.21;80.14
60479;BME280;46321;48.398;11.754;2023-02-13T15:02:22;98517.81;;;3.14;80.35
60479;BME280;46321;48.398;11.754;2023-02-13T15:05:12;98510.28;;;3.25;80.40
60479;BME280;46321;48.398;11.754;2023-02-13T15:07:49;98513.44;;;3.32;80.21
60479;BME280;46321;48.398;11.754;2023-02-13T15:10:25;98517.75;;;3.33;80.56